Main page
METAR-TAF:

METAR-TAF

Airports :

Damascus, Syria

Damascus International Airport

latitude: 33-25N, longitude: 036-31E, elevation: 608 m

Current weather observation

The report was made 54 minutes ago, at 08:00 UTC
Wind 9 kt from the East/Northeast
Temperature 27°C
Humidity 16%
Pressure 1014 hPa
Visibility 10 km or more
no clouds below 1500 m and no cumulonimbus

METAR: OSDI 300800Z 07009KT CAVOK 27/M01 Q1014

Time: 11:54 (08:54 UTC)

Forecast

Forecast valid from 29 at 18 UTC to 30 at 24 UTC
Wind 10 kt from the Southwest
Visibility 10 km or more
no clouds below 1500 m and no cumulonimbus
Temporary
from 30 at 09 UTC to 30 at 18 UTC
Wind 10 kt from the West/Southwest with gusts up to 20 kt
Visibility 10 km or more
Few clouds at a height of 3000 ft

TAF: OSDI 2918/3024 22010KT CAVOK TEMPO 3009/3018 24010G20KT 9999 FEW030

Weather observations and forecasts of more than 4000 airports (METAR and TAF reports).

The available stations are represented by yellow and red dots on the map.

Hover mouse over dot to see the name of the station.

Then click to see weather observations and forecasts.

To change the map : click on the green buttons with a black cross to zoom in, on the green button with a dash to zoom out, or on the green arrows for adjacent maps.


METAR-TAF: